Time;durP1;ratioP1;P1;durP2;ratioP2;P2;SDS_P1;SDS_P2;PMS_P1;PMS_P2;Temp;Humidity;BMP_temperature;BMP_pressure;BME280_temperature;BME280_humidity;BME280_pressure;Samples;Min_cycle;Max_cycle;Signal;HPM_P1;HPM_P2
2022/10/30 00:00:39;;;;;;;33.55;20.45;;;12.50;99.90;;;;;;5076052;28;20056;-69
2022/10/30 00:03:05;;;;;;;37.00;21.02;;;12.60;99.90;;;;;;5076339;28;20490;-71
2022/10/30 00:05:30;;;;;;;41.22;21.73;;;12.50;99.90;;;;;;5076349;28;20131;-71
2022/10/30 00:07:57;;;;;;;42.97;22.13;;;12.50;99.90;;;;;;5076133;28;20376;-69
2022/10/30 00:10:23;;;;;;;36.03;22.10;;;12.50;99.90;;;;;;5075614;28;20044;-70
2022/10/30 00:12:49;;;;;;;43.50;22.83;;;12.50;99.90;;;;;;5075882;28;20036;-71
2022/10/30 00:15:14;;;;;;;40.78;22.15;;;12.50;99.90;;;;;;5075866;28;20056;-70
2022/10/30 00:17:40;;;;;;;32.97;20.60;;;12.50;99.90;;;;;;5075941;28;20037;-71
2022/10/30 00:20:06;;;;;;;41.10;22.13;;;12.50;99.90;;;;;;5076235;28;20060;-71
2022/10/30 00:22:34;;;;;;;38.13;21.92;;;12.50;99.90;;;;;;5076093;28;20071;-72
2022/10/30 00:24:59;;;;;;;35.25;20.98;;;12.50;99.90;;;;;;5075386;28;20049;-70
2022/10/30 00:27:26;;;;;;;40.55;22.05;;;12.50;99.90;;;;;;5075898;28;20054;-72
2022/10/30 00:29:52;;;;;;;30.75;20.33;;;12.50;99.90;;;;;;5075743;28;20044;-73
2022/10/30 00:32:17;;;;;;;37.13;20.52;;;12.50;99.90;;;;;;5075549;28;20040;-70
2022/10/30 00:34:43;;;;;;;38.28;21.60;;;12.60;99.90;;;;;;5075961;28;20040;-70
2022/10/30 00:37:08;;;;;;;38.03;21.15;;;12.50;99.90;;;;;;5075100;28;20125;-70
2022/10/30 00:39:34;;;;;;;36.00;21.20;;;12.50;99.90;;;;;;5075102;28;20041;-70
2022/10/30 00:42:00;;;;;;;31.67;20.92;;;12.40;99.90;;;;;;5075774;28;20048;-70
2022/10/30 00:44:36;;;;;;;33.53;19.92;;;12.40;99.90;;;;;;5075282;28;20361;-71
2022/10/30 00:47:06;;;;;;;38.28;20.38;;;12.50;99.90;;;;;;5076078;28;20052;-71
2022/10/30 00:49:35;;;;;;;32.20;19.42;;;12.40;99.90;;;;;;5075574;28;20055;-70
2022/10/30 00:52:04;;;;;;;35.95;20.95;;;12.40;99.90;;;;;;5057664;28;20041;-70
2022/10/30 00:54:32;;;;;;;29.83;19.83;;;12.40;99.90;;;;;;5054077;28;20057;-71
2022/10/30 00:57:00;;;;;;;34.40;20.92;;;12.40;99.90;;;;;;5055149;28;20059;-71
2022/10/30 00:59:28;;;;;;;33.53;20.25;;;12.30;99.90;;;;;;5054820;28;20446;-71
2022/10/30 01:01:55;;;;;;;42.28;23.60;;;12.40;99.90;;;;;;5044134;28;20064;-71
2022/10/30 01:04:21;;;;;;;38.63;22.98;;;12.30;99.90;;;;;;5074549;28;20044;-71
2022/10/30 01:06:50;;;;;;;30.88;20.70;;;12.30;99.90;;;;;;5075950;28;20391;-71
2022/10/30 01:09:20;;;;;;;33.97;19.38;;;12.30;99.90;;;;;;5074996;28;20052;-71
2022/10/30 01:11:45;;;;;;;49.13;22.33;;;12.30;99.90;;;;;;5075453;28;20384;-71
2022/10/30 01:14:14;;;;;;;35.63;21.35;;;12.30;99.90;;;;;;5074776;28;20052;-70
2022/10/30 01:17:07;;;;;;;32.90;19.92;;;12.20;99.90;;;;;;5074967;28;20099;-70
2022/10/30 01:19:53;;;;;;;36.58;22.05;;;12.20;99.90;;;;;;5074933;28;20045;-71
2022/10/30 01:22:34;;;;;;;30.63;19.50;;;12.20;99.90;;;;;;5074799;28;20403;-71
2022/10/30 01:25:32;;;;;;;33.75;19.85;;;12.20;99.90;;;;;;5075698;28;20044;-73
2022/10/30 01:28:05;;;;;;;33.13;19.92;;;12.20;99.90;;;;;;5074946;28;20052;-71
2022/10/30 01:30:55;;;;;;;31.42;20.75;;;12.20;99.90;;;;;;5074825;28;20136;-71
2022/10/30 01:33:58;;;;;;;35.75;20.67;;;12.20;99.90;;;;;;5057083;28;20060;-70
2022/10/30 01:36:50;;;;;;;31.60;18.83;;;12.20;99.90;;;;;;5075150;28;20036;-70
2022/10/30 01:39:26;;;;;;;39.72;21.13;;;12.20;99.90;;;;;;5074880;28;20040;-71
2022/10/30 01:41:52;;;;;;;35.35;20.20;;;12.20;99.90;;;;;;5057111;28;20068;-71
2022/10/30 01:44:29;;;;;;;33.25;20.38;;;12.20;99.90;;;;;;5074838;28;20076;-71
2022/10/30 01:47:24;;;;;;;30.23;20.55;;;12.20;99.90;;;;;;5074090;28;20048;-71
2022/10/30 01:50:15;;;;;;;35.28;19.88;;;12.20;99.90;;;;;;5074993;28;20045;-71
2022/10/30 01:53:32;;;;;;;42.05;21.58;;;12.20;99.90;;;;;;5074732;28;20041;-70
2022/10/30 01:56:24;;;;;;;37.33;20.45;;;12.20;99.90;;;;;;4973676;28;20137;-71
2022/10/30 01:59:12;;;;;;;35.80;20.63;;;12.30;99.90;;;;;;4973863;28;20050;-71
2022/10/30 02:01:38;;;;;;;33.80;20.17;;;12.40;99.90;;;;;;5062792;28;20056;-71
2022/10/30 02:04:06;;;;;;;39.17;19.15;;;12.10;99.90;;;;;;5074645;28;20036;-71
2022/10/30 02:06:32;;;;;;;34.40;19.83;;;12.10;99.90;;;;;;5074540;28;20115;-70
2022/10/30 02:08:57;;;;;;;35.85;20.20;;;12.10;99.90;;;;;;5074572;28;20072;-71
2022/10/30 02:11:24;;;;;;;34.20;20.88;;;12.10;99.90;;;;;;5076443;28;20045;-71
2022/10/30 02:13:53;;;;;;;33.22;19.67;;;12.10;99.90;;;;;;5078041;28;20053;-70
2022/10/30 02:16:19;;;;;;;33.95;20.02;;;12.10;99.90;;;;;;5078038;28;20369;-71
2022/10/30 02:18:44;;;;;;;34.47;20.85;;;12.10;99.90;;;;;;5060835;28;20051;-70
2022/10/30 02:21:10;;;;;;;36.03;20.92;;;12.10;99.90;;;;;;5060787;28;20059;-71
2022/10/30 02:23:36;;;;;;;33.97;19.70;;;12.10;99.90;;;;;;5078290;28;20044;-70
2022/10/30 02:26:02;;;;;;;34.88;19.80;;;12.10;99.90;;;;;;5060322;28;20063;-70
2022/10/30 02:28:27;;;;;;;34.28;19.30;;;12.10;99.90;;;;;;5078201;28;20040;-71
2022/10/30 02:30:53;;;;;;;33.92;20.48;;;12.20;99.90;;;;;;5060349;28;20461;-73
2022/10/30 02:33:18;;;;;;;30.75;19.60;;;12.30;99.90;;;;;;5077942;28;20412;-70
2022/10/30 02:35:44;;;;;;;37.67;20.45;;;12.30;99.90;;;;;;5077865;28;20044;-70
2022/10/30 02:38:09;;;;;;;38.55;19.75;;;12.30;99.90;;;;;;5077747;28;20052;-70
2022/10/30 02:40:35;;;;;;;31.83;19.30;;;12.20;99.90;;;;;;5059698;28;20044;-70
2022/10/30 02:43:00;;;;;;;36.22;20.08;;;12.20;99.90;;;;;;5077312;28;20477;-73
2022/10/30 02:45:26;;;;;;;31.30;19.75;;;12.10;99.90;;;;;;5077640;28;20048;-70
2022/10/30 02:47:51;;;;;;;32.63;18.38;;;12.10;99.90;;;;;;5077772;28;20429;-72
2022/10/30 02:50:17;;;;;;;31.48;20.05;;;12.10;99.90;;;;;;5077424;28;20044;-70
2022/10/30 02:52:43;;;;;;;31.98;18.90;;;12.10;99.90;;;;;;5078414;28;20056;-70
2022/10/30 02:55:08;;;;;;;28.38;17.98;;;12.10;99.90;;;;;;5077572;28;20370;-70
2022/10/30 02:57:34;;;;;;;33.28;18.85;;;12.20;99.90;;;;;;5077382;28;20109;-70
2022/10/30 03:00:00;;;;;;;31.95;19.08;;;12.10;99.90;;;;;;5077263;28;20065;-71
2022/10/30 03:02:25;;;;;;;37.05;19.55;;;12.00;99.90;;;;;;5077842;28;20041;-71
2022/10/30 03:04:51;;;;;;;34.80;18.20;;;12.00;99.90;;;;;;5077109;28;20055;-70
2022/10/30 03:07:16;;;;;;;37.83;20.23;;;12.00;99.90;;;;;;5077515;28;20123;-70
2022/10/30 03:09:42;;;;;;;33.42;20.83;;;11.90;99.90;;;;;;5077197;28;20044;-70
2022/10/30 03:12:08;;;;;;;39.47;22.95;;;12.10;99.90;;;;;;5077309;28;20487;-71
2022/10/30 03:14:33;;;;;;;40.58;20.92;;;11.90;99.90;;;;;;5060215;28;20049;-71
2022/10/30 03:16:59;;;;;;;35.35;19.42;;;11.90;99.90;;;;;;5077193;28;20052;-71
2022/10/30 03:19:24;;;;;;;31.77;19.58;;;11.80;99.90;;;;;;5077297;28;20080;-71
2022/10/30 03:21:51;;;;;;;31.58;17.58;;;11.90;99.90;;;;;;5076603;28;20434;-71
2022/10/30 03:24:17;;;;;;;34.33;20.70;;;11.80;99.90;;;;;;5059657;28;20049;-70
2022/10/30 03:26:42;;;;;;;40.05;21.33;;;11.80;99.90;;;;;;5045605;28;20041;-71
2022/10/30 03:29:08;;;;;;;33.35;20.00;;;11.80;99.90;;;;;;5056992;28;20114;-71
2022/10/30 03:31:33;;;;;;;35.95;19.33;;;11.90;99.90;;;;;;5039225;28;20103;-71
2022/10/30 03:33:59;;;;;;;34.72;20.33;;;11.70;99.90;;;;;;5056872;28;20468;-72
2022/10/30 03:36:25;;;;;;;37.08;20.75;;;11.80;99.90;;;;;;5074931;28;20123;-73
2022/10/30 03:38:51;;;;;;;33.72;20.77;;;11.80;99.90;;;;;;5059320;28;20453;-70
2022/10/30 03:41:16;;;;;;;33.45;20.50;;;11.80;99.90;;;;;;5077081;28;20093;-71
2022/10/30 03:43:42;;;;;;;34.13;18.80;;;11.80;99.90;;;;;;5076855;28;20475;-71
2022/10/30 03:46:09;;;;;;;43.28;23.02;;;11.70;99.90;;;;;;5055071;28;20460;-72
2022/10/30 03:48:34;;;;;;;38.88;21.17;;;11.90;99.90;;;;;;5056756;28;20103;-70
2022/10/30 03:51:00;;;;;;;40.75;23.13;;;11.80;99.90;;;;;;5056636;28;20477;-71
2022/10/30 03:53:27;;;;;;;36.40;22.17;;;11.90;99.90;;;;;;5056674;28;20358;-71
2022/10/30 03:55:56;;;;;;;34.70;21.00;;;11.80;99.90;;;;;;5047029;28;20052;-72
2022/10/30 03:58:22;;;;;;;41.10;21.77;;;11.80;99.90;;;;;;5056309;28;20045;-70
2022/10/30 04:00:48;;;;;;;35.80;23.15;;;11.70;99.90;;;;;;5035442;28;20063;-70
2022/10/30 04:03:13;;;;;;;40.22;25.35;;;11.70;99.90;;;;;;5036382;28;20055;-71
2022/10/30 04:05:39;;;;;;;36.55;21.10;;;11.70;99.90;;;;;;5036656;28;20053;-71
2022/10/30 04:08:09;;;;;;;38.55;22.83;;;11.70;99.90;;;;;;5036189;28;20056;-70
2022/10/30 04:10:35;;;;;;;37.28;23.17;;;11.70;99.90;;;;;;5046758;28;20118;-71
2022/10/30 04:13:02;;;;;;;36.53;21.33;;;11.70;99.90;;;;;;5056202;28;20442;-71
2022/10/30 04:15:28;;;;;;;40.17;22.33;;;11.60;99.90;;;;;;5056049;28;20119;-70
2022/10/30 04:17:54;;;;;;;39.65;22.38;;;11.60;99.90;;;;;;5056469;28;20041;-71
2022/10/30 04:20:21;;;;;;;37.50;21.98;;;11.60;99.90;;;;;;5056163;28;20370;-73
2022/10/30 04:22:47;;;;;;;44.42;25.80;;;11.60;99.90;;;;;;5056040;28;20037;-71
2022/10/30 04:25:13;;;;;;;34.58;21.15;;;11.60;99.90;;;;;;5055407;28;20519;-71
2022/10/30 04:27:40;;;;;;;40.95;23.67;;;11.70;99.90;;;;;;5055791;28;20049;-70
2022/10/30 04:30:07;;;;;;;43.15;23.48;;;11.60;99.90;;;;;;5054705;28;20040;-72
2022/10/30 04:32:33;;;;;;;38.42;23.05;;;11.60;99.90;;;;;;5055678;28;20455;-70
2022/10/30 04:34:58;;;;;;;41.72;22.50;;;11.70;99.90;;;;;;5054106;28;20132;-70
2022/10/30 04:37:24;;;;;;;42.72;23.15;;;11.60;99.90;;;;;;5054880;28;20365;-71
2022/10/30 04:39:49;;;;;;;35.90;22.15;;;11.60;99.90;;;;;;5055755;28;20118;-71
2022/10/30 04:42:15;;;;;;;43.67;23.73;;;11.60;99.90;;;;;;5054981;28;20402;-71
2022/10/30 04:44:40;;;;;;;38.08;23.80;;;11.60;99.90;;;;;;5054593;28;20059;-72
2022/10/30 04:47:06;;;;;;;39.72;24.33;;;11.50;99.90;;;;;;5054519;28;20060;-70
2022/10/30 04:49:31;;;;;;;40.72;22.48;;;11.50;99.90;;;;;;5055701;28;20088;-70
2022/10/30 04:51:57;;;;;;;49.03;25.15;;;11.50;99.90;;;;;;5055416;28;20056;-70
2022/10/30 04:54:23;;;;;;;41.83;24.73;;;11.50;99.90;;;;;;5055051;28;20051;-70
2022/10/30 04:56:48;;;;;;;40.85;22.48;;;11.50;99.90;;;;;;5055132;28;20040;-73
2022/10/30 04:59:14;;;;;;;46.88;25.50;;;11.50;99.90;;;;;;5057058;28;20087;-71
2022/10/30 05:01:39;;;;;;;47.65;25.98;;;11.50;99.90;;;;;;5075342;28;20094;-71
2022/10/30 05:04:05;;;;;;;40.63;24.35;;;11.50;99.90;;;;;;5057850;28;20110;-70
2022/10/30 05:06:31;;;;;;;46.70;24.90;;;11.50;99.90;;;;;;5023408;28;20064;-72
2022/10/30 05:08:57;;;;;;;35.80;22.98;;;11.50;99.90;;;;;;5073700;28;20192;-70
2022/10/30 05:11:23;;;;;;;35.13;21.77;;;11.50;99.90;;;;;;5055095;28;20040;-73
2022/10/30 05:13:48;;;;;;;49.95;26.75;;;11.50;99.90;;;;;;5056976;28;20041;-71
2022/10/30 05:16:14;;;;;;;43.88;24.48;;;11.50;99.90;;;;;;5054881;28;20052;-71
2022/10/30 05:18:39;;;;;;;45.72;25.50;;;11.50;99.90;;;;;;5055310;28;20041;-73
2022/10/30 05:21:05;;;;;;;41.55;24.23;;;11.50;99.90;;;;;;5054868;28;20504;-72
2022/10/30 05:23:31;;;;;;;48.65;25.83;;;11.50;99.90;;;;;;5054773;28;20552;-70
2022/10/30 05:25:59;;;;;;;34.25;23.13;;;11.50;99.90;;;;;;5055048;28;20052;-73
2022/10/30 05:28:24;;;;;;;43.10;26.85;;;11.50;99.90;;;;;;5054914;28;20519;-71
2022/10/30 05:30:52;;;;;;;41.65;25.42;;;11.50;99.90;;;;;;5054824;28;20135;-70
2022/10/30 05:33:17;;;;;;;45.33;24.42;;;11.40;99.90;;;;;;5054935;28;20044;-72
2022/10/30 05:35:43;;;;;;;44.20;25.83;;;11.40;99.90;;;;;;5048776;28;20412;-73
2022/10/30 05:38:09;;;;;;;51.22;25.63;;;11.40;99.90;;;;;;5054661;28;20041;-72
2022/10/30 05:40:35;;;;;;;43.17;26.40;;;11.40;99.90;;;;;;5054654;28;20147;-71
2022/10/30 05:43:01;;;;;;;44.10;25.48;;;11.50;99.90;;;;;;5054539;28;20457;-71
2022/10/30 05:45:26;;;;;;;40.53;22.38;;;11.50;99.90;;;;;;5066019;28;20051;-71
2022/10/30 05:48:04;;;;;;;42.70;24.23;;;11.40;99.90;;;;;;5079642;28;20437;-71
2022/10/30 05:50:30;;;;;;;39.40;25.13;;;11.40;99.90;;;;;;5077357;28;20530;-72
2022/10/30 05:52:56;;;;;;;50.35;25.27;;;11.40;99.90;;;;;;5057240;28;20064;-71
2022/10/30 05:55:21;;;;;;;33.20;21.27;;;11.40;99.90;;;;;;5058304;28;20374;-73
2022/10/30 05:57:47;;;;;;;48.75;26.13;;;11.30;99.90;;;;;;5058169;28;20041;-71
2022/10/30 06:00:13;;;;;;;35.97;24.75;;;11.40;99.90;;;;;;5065470;28;20471;-71
2022/10/30 06:02:39;;;;;;;37.38;23.48;;;11.30;99.90;;;;;;5074073;28;20414;-71
2022/10/30 06:05:04;;;;;;;44.65;25.05;;;11.30;99.90;;;;;;5075284;28;20120;-71
2022/10/30 06:07:30;;;;;;;44.58;23.42;;;11.30;99.90;;;;;;5045928;28;20037;-71
2022/10/30 06:09:55;;;;;;;44.20;25.13;;;11.50;99.90;;;;;;5069269;28;20496;-71
2022/10/30 06:12:21;;;;;;;41.20;24.77;;;11.20;99.90;;;;;;5070329;28;20040;-71
2022/10/30 06:14:47;;;;;;;43.20;26.63;;;11.20;99.90;;;;;;5060310;28;20054;-72
2022/10/30 06:17:12;;;;;;;43.63;25.08;;;11.20;99.90;;;;;;5078072;28;20045;-71
2022/10/30 06:19:40;;;;;;;49.05;26.73;;;11.30;99.90;;;;;;5074270;28;20057;-72
2022/10/30 06:22:05;;;;;;;34.40;23.40;;;11.10;99.90;;;;;;5060944;28;20055;-70
2022/10/30 06:24:31;;;;;;;46.13;25.33;;;11.20;99.90;;;;;;5078207;28;20041;-70
2022/10/30 06:26:57;;;;;;;45.10;27.38;;;11.20;99.90;;;;;;5078081;28;20044;-71
2022/10/30 06:29:22;;;;;;;43.03;27.52;;;11.10;99.90;;;;;;5077604;28;20040;-71
2022/10/30 06:31:48;;;;;;;45.92;27.15;;;11.20;99.90;;;;;;5078202;28;20128;-72
2022/10/30 06:34:13;;;;;;;51.70;29.15;;;11.20;99.90;;;;;;5077897;28;20476;-71
2022/10/30 06:36:39;;;;;;;46.63;27.10;;;11.20;99.90;;;;;;5077731;28;20348;-71
2022/10/30 06:39:04;;;;;;;49.40;27.95;;;11.20;99.90;;;;;;5078185;28;20128;-72
2022/10/30 06:41:30;;;;;;;50.58;29.63;;;11.10;99.90;;;;;;5077961;28;20533;-72
2022/10/30 06:43:56;;;;;;;46.47;25.33;;;11.10;99.90;;;;;;5077550;28;20360;-71
2022/10/30 06:46:21;;;;;;;53.80;26.83;;;11.10;99.90;;;;;;5078154;28;20049;-70
2022/10/30 06:48:47;;;;;;;37.90;23.98;;;11.10;99.90;;;;;;5077773;28;20489;-72
2022/10/30 06:51:15;;;;;;;42.28;26.33;;;11.10;99.90;;;;;;5077613;28;20045;-71
2022/10/30 06:53:40;;;;;;;47.72;27.38;;;11.10;99.90;;;;;;5077606;28;20117;-71
2022/10/30 06:56:07;;;;;;;47.50;27.10;;;11.20;99.90;;;;;;5077242;28;20056;-73
2022/10/30 06:58:37;;;;;;;49.75;26.52;;;11.10;99.90;;;;;;5076887;28;20389;-71
2022/10/30 07:01:04;;;;;;;46.60;26.50;;;11.10;99.90;;;;;;5077631;28;20056;-71
2022/10/30 07:03:30;;;;;;;44.72;27.25;;;11.20;99.90;;;;;;5077533;28;20460;-70
2022/10/30 07:05:56;;;;;;;44.15;25.88;;;11.20;99.90;;;;;;5056936;28;20085;-71
2022/10/30 07:08:22;;;;;;;50.40;27.80;;;11.40;99.90;;;;;;5058220;28;20142;-71
2022/10/30 07:10:47;;;;;;;46.17;26.13;;;11.30;99.90;;;;;;5032383;28;20441;-71
2022/10/30 07:13:13;;;;;;;47.63;24.60;;;11.30;99.90;;;;;;5061376;28;20338;-72
2022/10/30 07:15:39;;;;;;;47.75;26.02;;;11.30;99.90;;;;;;5077203;28;20058;-73
2022/10/30 07:18:04;;;;;;;38.90;24.95;;;11.30;99.90;;;;;;5070083;28;20055;-72
2022/10/30 07:20:32;;;;;;;46.85;27.48;;;11.40;99.90;;;;;;5048268;28;20048;-72
2022/10/30 07:22:59;;;;;;;48.88;27.52;;;11.40;99.90;;;;;;5065590;28;20449;-72
2022/10/30 07:25:24;;;;;;;46.00;27.63;;;11.50;99.90;;;;;;5067447;28;20082;-70
2022/10/30 07:27:52;;;;;;;44.88;27.88;;;11.50;99.90;;;;;;5066119;28;20401;-70
2022/10/30 07:30:20;;;;;;;44.88;28.02;;;11.60;99.90;;;;;;5065322;28;20052;-73
2022/10/30 07:32:56;;;;;;;48.28;26.58;;;11.60;99.90;;;;;;5061908;28;20040;-72
2022/10/30 07:35:22;;;;;;;39.33;24.50;;;11.60;99.90;;;;;;5047423;28;20055;-72
2022/10/30 07:37:47;;;;;;;44.47;25.20;;;11.70;99.90;;;;;;5056664;28;20127;-73
2022/10/30 07:40:13;;;;;;;45.67;25.00;;;11.70;99.90;;;;;;5056637;28;20124;-71
2022/10/30 07:42:39;;;;;;;41.28;24.75;;;11.90;99.90;;;;;;5056381;28;20358;-71
2022/10/30 07:45:05;;;;;;;40.90;26.48;;;11.80;99.90;;;;;;5062605;28;20053;-71
2022/10/30 07:47:30;;;;;;;48.78;28.95;;;11.80;99.90;;;;;;5075812;28;20411;-71
2022/10/30 07:49:56;;;;;;;40.85;25.92;;;11.80;99.90;;;;;;5076309;28;20054;-74
2022/10/30 07:52:21;;;;;;;38.53;25.30;;;11.90;99.90;;;;;;5076453;28;20041;-71
2022/10/30 07:54:47;;;;;;;41.95;25.75;;;12.00;99.90;;;;;;5076044;28;20123;-73
2022/10/30 07:57:12;;;;;;;45.45;28.17;;;12.00;99.90;;;;;;5076101;28;20082;-72
2022/10/30 07:59:38;;;;;;;49.38;26.85;;;12.00;99.90;;;;;;5075573;28;20071;-73
2022/10/30 08:02:04;;;;;;;40.17;26.02;;;12.10;99.90;;;;;;5076020;28;20053;-72
2022/10/30 08:04:29;;;;;;;44.38;26.58;;;12.20;99.90;;;;;;5076075;28;20044;-71
2022/10/30 08:06:55;;;;;;;44.50;25.85;;;12.20;99.90;;;;;;5076169;28;20068;-72
2022/10/30 08:09:20;;;;;;;42.08;26.92;;;12.30;99.90;;;;;;5057543;28;20045;-72
2022/10/30 08:11:46;;;;;;;43.78;27.70;;;12.30;99.90;;;;;;5075751;28;20040;-73
2022/10/30 08:14:14;;;;;;;38.00;26.27;;;12.40;99.90;;;;;;5075752;28;20058;-74
2022/10/30 08:16:40;;;;;;;44.85;27.00;;;12.50;99.90;;;;;;5075496;28;20048;-73
2022/10/30 08:19:05;;;;;;;45.65;27.50;;;12.50;99.90;;;;;;5075833;28;20048;-72
2022/10/30 08:21:31;;;;;;;40.08;25.55;;;12.60;99.90;;;;;;5075511;28;20453;-71
2022/10/30 08:23:57;;;;;;;45.47;27.20;;;12.60;99.90;;;;;;5075407;28;20060;-74
2022/10/30 08:26:22;;;;;;;45.58;27.90;;;12.60;99.90;;;;;;5069206;28;20353;-72
2022/10/30 08:28:48;;;;;;;40.25;26.08;;;12.70;99.90;;;;;;5055160;28;20080;-72
2022/10/30 08:31:13;;;;;;;43.17;27.15;;;12.70;99.90;;;;;;5060215;28;20051;-73
2022/10/30 08:33:39;;;;;;;39.65;26.02;;;12.80;99.90;;;;;;5075462;28;20040;-73
2022/10/30 08:36:06;;;;;;;41.38;24.65;;;12.80;99.90;;;;;;5075237;28;20052;-71
2022/10/30 08:38:31;;;;;;;46.47;26.60;;;12.90;99.90;;;;;;5057177;28;20043;-73
2022/10/30 08:40:57;;;;;;;40.30;26.63;;;13.00;99.90;;;;;;5075262;28;20437;-72
2022/10/30 08:43:24;;;;;;;38.42;25.50;;;13.00;99.90;;;;;;5058029;28;20036;-71
2022/10/30 08:45:49;;;;;;;43.33;25.80;;;13.00;99.90;;;;;;5075037;28;20032;-73
2022/10/30 08:48:15;;;;;;;46.00;25.70;;;13.10;99.90;;;;;;5074611;28;20368;-71
2022/10/30 08:50:41;;;;;;;45.95;26.95;;;13.10;99.90;;;;;;5075333;28;20119;-70
2022/10/30 08:53:11;;;;;;;41.65;25.20;;;13.20;99.90;;;;;;5075246;28;20041;-71
2022/10/30 08:55:39;;;;;;;34.92;24.20;;;13.20;99.90;;;;;;5075031;28;20073;-71
2022/10/30 08:58:05;;;;;;;34.22;23.38;;;13.30;99.90;;;;;;5075089;28;20036;-71
2022/10/30 09:00:31;;;;;;;40.10;25.02;;;13.30;99.90;;;;;;5074591;28;20098;-72
2022/10/30 09:02:57;;;;;;;39.97;25.42;;;13.40;99.90;;;;;;5074879;28;20055;-72
2022/10/30 09:05:22;;;;;;;39.03;24.45;;;13.50;99.90;;;;;;5074808;28;20110;-73
2022/10/30 09:07:48;;;;;;;38.00;23.85;;;13.50;99.90;;;;;;5074855;28;20040;-73
2022/10/30 09:10:14;;;;;;;32.25;22.55;;;13.60;99.90;;;;;;5075080;28;20040;-71
2022/10/30 09:12:40;;;;;;;39.35;24.88;;;13.60;99.90;;;;;;5074780;28;20063;-74
2022/10/30 09:15:06;;;;;;;40.83;25.80;;;13.70;99.90;;;;;;5075160;28;20044;-73
2022/10/30 09:17:32;;;;;;;37.88;23.02;;;13.80;99.90;;;;;;5057708;28;20055;-73
2022/10/30 09:19:57;;;;;;;44.03;24.65;;;13.80;99.90;;;;;;5074530;28;20048;-73
2022/10/30 09:22:23;;;;;;;32.08;23.50;;;13.90;99.90;;;;;;5056696;28;20140;-73
2022/10/30 09:24:48;;;;;;;42.60;23.58;;;13.90;99.90;;;;;;5074705;28;20051;-73
2022/10/30 09:27:14;;;;;;;41.65;23.40;;;14.00;99.90;;;;;;5074775;28;20052;-74
2022/10/30 09:29:40;;;;;;;42.00;24.60;;;14.00;99.90;;;;;;5056789;28;20044;-72
2022/10/30 09:32:08;;;;;;;36.72;22.45;;;14.10;99.90;;;;;;5074733;28;20072;-72
2022/10/30 09:34:34;;;;;;;37.58;23.67;;;14.10;99.90;;;;;;5056517;28;20041;-71
2022/10/30 09:37:00;;;;;;;45.40;22.17;;;14.20;99.90;;;;;;5074121;28;20084;-72
2022/10/30 09:39:28;;;;;;;31.67;22.25;;;14.40;99.90;;;;;;5074577;28;20076;-73
2022/10/30 09:42:12;;;;;;;32.83;21.08;;;14.40;99.90;;;;;;5057083;28;20079;-72
2022/10/30 09:45:02;;;;;;;41.78;20.88;;;14.40;99.90;;;;;;5074545;28;20520;-75
2022/10/30 09:47:31;;;;;;;31.17;20.05;;;14.50;99.90;;;;;;5074344;28;20354;-72
2022/10/30 09:50:21;;;;;;;31.10;21.17;;;14.50;99.90;;;;;;5074491;28;20040;-74
2022/10/30 09:53:10;;;;;;;30.70;19.80;;;14.60;99.90;;;;;;5074207;28;20163;-73
2022/10/30 09:55:45;;;;;;;36.80;20.90;;;14.70;99.90;;;;;;5074120;28;20098;-73
2022/10/30 09:58:19;;;;;;;24.40;16.98;;;14.90;99.90;;;;;;5074888;28;20048;-73
2022/10/30 10:00:54;;;;;;;35.53;18.85;;;14.90;99.90;;;;;;5074417;28;20057;-72
2022/10/30 10:03:36;;;;;;;34.08;19.02;;;15.10;99.90;;;;;;5074828;28;20063;-71
2022/10/30 10:06:02;;;;;;;28.42;18.63;;;15.10;99.90;;;;;;5074702;28;20047;-73
2022/10/30 10:08:43;;;;;;;28.90;17.27;;;15.20;99.90;;;;;;5074569;28;20032;-69
2022/10/30 10:11:17;;;;;;;31.80;18.23;;;15.30;99.90;;;;;;5074223;28;20060;-70
2022/10/30 10:13:50;;;;;;;33.17;17.33;;;15.50;99.90;;;;;;5074476;28;20037;-69
2022/10/30 10:16:22;;;;;;;36.85;17.42;;;15.60;99.90;;;;;;5074401;28;20048;-70
2022/10/30 10:19:00;;;;;;;27.00;15.63;;;15.70;99.90;;;;;;5074360;28;20110;-70
2022/10/30 10:21:27;;;;;;;26.90;15.20;;;15.80;99.90;;;;;;5073864;28;20048;-70
2022/10/30 10:23:59;;;;;;;26.83;15.20;;;15.90;99.90;;;;;;5073924;28;20373;-71
2022/10/30 10:27:07;;;;;;;28.70;14.05;;;16.00;99.90;;;;;;5074252;28;20048;-72
2022/10/30 10:29:49;;;;;;;28.02;14.73;;;16.10;99.90;;;;;;5074014;28;20049;-72
2022/10/30 10:32:30;;;;;;;24.52;13.95;;;16.20;99.90;;;;;;5075506;28;20114;-72
2022/10/30 10:34:55;;;;;;;25.73;14.68;;;16.20;99.90;;;;;;5077984;28;20145;-72
2022/10/30 10:37:33;;;;;;;22.67;12.95;;;16.20;99.90;;;;;;5077637;28;20486;-72
2022/10/30 10:40:29;;;;;;;33.72;14.52;;;16.30;99.90;;;;;;5058004;28;20065;-72
2022/10/30 10:43:22;;;;;;;26.17;13.30;;;16.30;99.90;;;;;;5057670;28;20045;-70
2022/10/30 10:46:18;;;;;;;25.80;12.87;;;16.30;99.90;;;;;;5057151;28;20045;-71
2022/10/30 10:49:09;;;;;;;28.48;13.10;;;16.40;99.90;;;;;;5057425;28;20124;-73
2022/10/30 10:51:42;;;;;;;24.23;12.07;;;16.40;99.90;;;;;;5072856;28;20373;-72
2022/10/30 10:54:21;;;;;;;23.37;12.40;;;16.60;99.90;;;;;;5064391;28;20045;-71
2022/10/30 10:56:49;;;;;;;22.40;12.00;;;16.60;99.90;;;;;;5048985;28;20378;-69
2022/10/30 10:59:31;;;;;;;22.83;12.13;;;16.70;99.90;;;;;;5068519;28;20153;-70
2022/10/30 11:02:34;;;;;;;23.98;11.52;;;16.70;99.90;;;;;;5057375;28;20052;-70
2022/10/30 11:05:07;;;;;;;22.10;10.50;;;16.80;99.90;;;;;;5057416;28;20041;-70
2022/10/30 11:07:42;;;;;;;16.15;9.45;;;17.00;99.90;;;;;;5057071;28;20048;-71
2022/10/30 11:10:13;;;;;;;21.70;9.57;;;17.00;99.90;;;;;;5057466;28;20358;-71
2022/10/30 11:12:39;;;;;;;25.17;9.38;;;17.10;99.90;;;;;;5058123;28;20396;-71
2022/10/30 11:15:16;;;;;;;22.75;9.95;;;17.20;99.90;;;;;;5070068;28;20047;-71
2022/10/30 11:18:08;;;;;;;21.08;9.40;;;17.20;99.90;;;;;;5065339;28;20045;-71
2022/10/30 11:20:47;;;;;;;18.85;9.50;;;17.30;99.90;;;;;;5057593;28;20048;-72
2022/10/30 11:23:37;;;;;;;22.67;9.25;;;17.30;99.90;;;;;;5059015;28;20461;-69
2022/10/30 11:26:23;;;;;;;22.38;9.63;;;17.40;99.90;;;;;;5072223;28;20112;-70
2022/10/30 11:29:22;;;;;;;24.63;10.05;;;17.50;99.90;;;;;;5075405;28;20465;-71
2022/10/30 11:32:00;;;;;;;20.67;9.10;;;17.50;99.90;;;;;;5069738;28;20053;-69
2022/10/30 11:34:36;;;;;;;19.42;10.43;;;17.60;99.90;;;;;;5076646;28;20426;-71
2022/10/30 11:37:03;;;;;;;21.33;8.88;;;17.70;99.90;;;;;;5063893;28;20106;-70
2022/10/30 11:39:34;;;;;;;18.27;8.32;;;17.80;99.90;;;;;;5059508;28;20115;-72
2022/10/30 11:42:09;;;;;;;18.88;7.50;;;17.80;99.90;;;;;;5068072;28;20055;-70
2022/10/30 11:44:40;;;;;;;20.70;7.32;;;17.90;99.90;;;;;;5054999;28;20119;-71
2022/10/30 11:47:07;;;;;;;17.50;7.20;;;18.00;99.90;;;;;;5056271;28;20053;-71
2022/10/30 11:49:52;;;;;;;14.43;6.97;;;18.10;99.90;;;;;;5056605;28;20049;-73
2022/10/30 11:52:21;;;;;;;16.25;7.40;;;18.00;99.90;;;;;;5056474;28;20455;-72
2022/10/30 11:54:54;;;;;;;20.50;7.32;;;18.10;99.90;;;;;;5067842;28;20052;-72
2022/10/30 11:57:22;;;;;;;16.05;7.30;;;18.10;99.90;;;;;;5070072;28;20037;-73
2022/10/30 11:59:50;;;;;;;18.65;7.90;;;18.10;99.90;;;;;;5056082;28;20088;-73
2022/10/30 12:02:26;;;;;;;22.90;8.48;;;18.10;99.90;;;;;;5056173;28;20049;-72
2022/10/30 12:05:00;;;;;;;22.80;8.90;;;18.00;99.90;;;;;;5056330;28;20033;-72
2022/10/30 12:07:31;;;;;;;16.45;8.85;;;18.20;99.90;;;;;;5022506;28;20101;-73
2022/10/30 12:09:58;;;;;;;19.90;9.98;;;18.40;99.90;;;;;;5057862;28;20053;-73
2022/10/30 12:12:40;;;;;;;17.75;9.57;;;18.60;99.90;;;;;;5075680;28;20053;-72
2022/10/30 12:15:12;;;;;;;21.17;9.15;;;18.70;99.90;;;;;;5075874;28;20090;-71
2022/10/30 12:17:39;;;;;;;19.15;9.43;;;18.70;99.90;;;;;;5075275;28;20048;-71
2022/10/30 12:20:06;;;;;;;17.20;8.52;;;18.70;99.90;;;;;;5075548;28;20067;-71
2022/10/30 12:22:33;;;;;;;22.55;9.30;;;18.80;99.90;;;;;;5062206;28;20371;-72
2022/10/30 12:25:03;;;;;;;22.00;9.60;;;18.80;99.90;;;;;;5075634;28;20063;-72
2022/10/30 12:27:34;;;;;;;19.08;8.23;;;18.80;99.90;;;;;;5057723;28;20469;-73
2022/10/30 12:30:02;;;;;;;21.42;9.40;;;18.80;99.90;;;;;;5075819;28;20057;-70
2022/10/30 12:32:53;;;;;;;17.80;8.43;;;18.70;99.90;;;;;;5075527;28;20047;-71
2022/10/30 12:35:57;;;;;;;16.58;8.38;;;18.70;99.90;;;;;;5024306;28;20049;-71
2022/10/30 12:38:39;;;;;;;15.95;8.32;;;18.70;99.90;;;;;;5075401;28;20119;-71
2022/10/30 12:41:10;;;;;;;16.52;7.85;;;18.70;99.90;;;;;;5074606;28;20040;-71